sensor_id;sensor_type;location;lat;lon;timestamp;temperature;humidity
16823;DHT22;8528;49.976;11.858;2023-08-21T00:00:14;20.20;99.90
16823;DHT22;8528;49.976;11.858;2023-08-21T00:02:41;20.20;99.90
16823;DHT22;8528;49.976;11.858;2023-08-21T00:05:08;20.10;99.90
16823;DHT22;8528;49.976;11.858;2023-08-21T00:07:36;20.10;99.90
16823;DHT22;8528;49.976;11.858;2023-08-21T00:10:03;20.10;99.90
16823;DHT22;8528;49.976;11.858;2023-08-21T00:12:29;20.10;99.90
16823;DHT22;8528;49.976;11.858;2023-08-21T00:14:57;20.10;99.90
16823;DHT22;8528;49.976;11.858;2023-08-21T00:17:24;20.10;99.90
16823;DHT22;8528;49.976;11.858;2023-08-21T00:19:51;20.10;99.90
16823;DHT22;8528;49.976;11.858;2023-08-21T00:22:18;20.10;99.90
16823;DHT22;8528;49.976;11.858;2023-08-21T00:24:45;20.00;99.90
16823;DHT22;8528;49.976;11.858;2023-08-21T00:27:12;20.00;99.90
16823;DHT22;8528;49.976;11.858;2023-08-21T00:29:38;20.00;99.90
16823;DHT22;8528;49.976;11.858;2023-08-21T00:32:26;20.00;99.90
16823;DHT22;8528;49.976;11.858;2023-08-21T00:34:54;20.00;99.90
16823;DHT22;8528;49.976;11.858;2023-08-21T00:37:21;20.00;99.90
16823;DHT22;8528;49.976;11.858;2023-08-21T00:39:48;20.00;99.90
16823;DHT22;8528;49.976;11.858;2023-08-21T00:42:15;20.00;99.90
16823;DHT22;8528;49.976;11.858;2023-08-21T00:44:42;20.00;99.90
16823;DHT22;8528;49.976;11.858;2023-08-21T00:47:09;19.90;99.90
16823;DHT22;8528;49.976;11.858;2023-08-21T00:49:36;19.90;99.90
16823;DHT22;8528;49.976;11.858;2023-08-21T00:52:08;19.90;99.90
16823;DHT22;8528;49.976;11.858;2023-08-21T00:54:38;19.90;99.90
16823;DHT22;8528;49.976;11.858;2023-08-21T00:57:05;19.80;99.90
16823;DHT22;8528;49.976;11.858;2023-08-21T00:59:32;19.80;99.90
16823;DHT22;8528;49.976;11.858;2023-08-21T01:01:59;19.80;99.90
16823;DHT22;8528;49.976;11.858;2023-08-21T01:04:26;19.80;99.90
16823;DHT22;8528;49.976;11.858;2023-08-21T01:06:52;19.80;99.90
16823;DHT22;8528;49.976;11.858;2023-08-21T01:09:31;19.70;99.90
16823;DHT22;8528;49.976;11.858;2023-08-21T01:12:18;19.70;99.90
16823;DHT22;8528;49.976;11.858;2023-08-21T01:14:58;19.70;99.90
16823;DHT22;8528;49.976;11.858;2023-08-21T01:17:28;19.60;99.90
16823;DHT22;8528;49.976;11.858;2023-08-21T01:19:56;19.60;99.90
16823;DHT22;8528;49.976;11.858;2023-08-21T01:22:27;19.50;99.90
16823;DHT22;8528;49.976;11.858;2023-08-21T01:24:54;19.50;99.90
16823;DHT22;8528;49.976;11.858;2023-08-21T01:27:21;19.40;99.90
16823;DHT22;8528;49.976;11.858;2023-08-21T01:29:51;19.40;99.90
16823;DHT22;8528;49.976;11.858;2023-08-21T01:32:23;19.40;99.90
16823;DHT22;8528;49.976;11.858;2023-08-21T01:34:55;19.40;99.90
16823;DHT22;8528;49.976;11.858;2023-08-21T01:37:24;19.30;99.90
16823;DHT22;8528;49.976;11.858;2023-08-21T01:39:50;19.30;99.90
16823;DHT22;8528;49.976;11.858;2023-08-21T01:42:17;19.40;99.90
16823;DHT22;8528;49.976;11.858;2023-08-21T01:44:44;19.40;99.90
16823;DHT22;8528;49.976;11.858;2023-08-21T01:47:14;19.30;99.90
16823;DHT22;8528;49.976;11.858;2023-08-21T01:49:41;19.30;99.90
16823;DHT22;8528;49.976;11.858;2023-08-21T01:52:08;19.30;99.90
16823;DHT22;8528;49.976;11.858;2023-08-21T01:54:35;19.30;99.90
16823;DHT22;8528;49.976;11.858;2023-08-21T01:57:03;19.30;99.90
16823;DHT22;8528;49.976;11.858;2023-08-21T01:59:30;19.40;99.90
16823;DHT22;8528;49.976;11.858;2023-08-21T02:01:56;19.40;99.90
16823;DHT22;8528;49.976;11.858;2023-08-21T02:04:24;19.40;99.90
16823;DHT22;8528;49.976;11.858;2023-08-21T02:06:50;19.40;99.90
16823;DHT22;8528;49.976;11.858;2023-08-21T02:09:17;19.40;99.90
16823;DHT22;8528;49.976;11.858;2023-08-21T02:11:45;19.30;99.90
16823;DHT22;8528;49.976;11.858;2023-08-21T02:14:12;19.30;99.90
16823;DHT22;8528;49.976;11.858;2023-08-21T02:16:38;19.30;99.90
16823;DHT22;8528;49.976;11.858;2023-08-21T02:19:05;19.30;99.90
16823;DHT22;8528;49.976;11.858;2023-08-21T02:21:34;19.20;99.90
16823;DHT22;8528;49.976;11.858;2023-08-21T02:24:03;19.20;99.90
16823;DHT22;8528;49.976;11.858;2023-08-21T02:26:30;19.20;99.90
16823;DHT22;8528;49.976;11.858;2023-08-21T02:28:56;19.30;99.90
16823;DHT22;8528;49.976;11.858;2023-08-21T02:31:24;19.20;99.90
16823;DHT22;8528;49.976;11.858;2023-08-21T02:33:51;19.30;99.90
16823;DHT22;8528;49.976;11.858;2023-08-21T02:36:18;19.30;99.90
16823;DHT22;8528;49.976;11.858;2023-08-21T02:38:45;19.30;99.90
16823;DHT22;8528;49.976;11.858;2023-08-21T02:41:12;19.40;99.90
16823;DHT22;8528;49.976;11.858;2023-08-21T02:43:43;19.40;99.90
16823;DHT22;8528;49.976;11.858;2023-08-21T02:46:09;19.40;99.90
16823;DHT22;8528;49.976;11.858;2023-08-21T02:48:36;19.40;99.90
16823;DHT22;8528;49.976;11.858;2023-08-21T02:51:03;19.30;99.90
16823;DHT22;8528;49.976;11.858;2023-08-21T02:53:31;19.30;99.90
16823;DHT22;8528;49.976;11.858;2023-08-21T02:55:58;19.30;99.90
16823;DHT22;8528;49.976;11.858;2023-08-21T02:58:25;19.20;99.90
16823;DHT22;8528;49.976;11.858;2023-08-21T03:00:53;19.20;99.90
16823;DHT22;8528;49.976;11.858;2023-08-21T03:03:20;19.20;99.90
16823;DHT22;8528;49.976;11.858;2023-08-21T03:05:46;19.20;99.90
16823;DHT22;8528;49.976;11.858;2023-08-21T03:08:14;19.20;99.90
16823;DHT22;8528;49.976;11.858;2023-08-21T03:10:41;19.20;99.90
16823;DHT22;8528;49.976;11.858;2023-08-21T03:13:08;19.20;99.90
16823;DHT22;8528;49.976;11.858;2023-08-21T03:15:35;19.20;99.90
16823;DHT22;8528;49.976;11.858;2023-08-21T03:18:02;19.20;99.90
16823;DHT22;8528;49.976;11.858;2023-08-21T03:20:29;19.20;99.90
16823;DHT22;8528;49.976;11.858;2023-08-21T03:22:56;19.10;99.90
16823;DHT22;8528;49.976;11.858;2023-08-21T03:25:23;19.00;99.90
16823;DHT22;8528;49.976;11.858;2023-08-21T03:27:50;19.00;99.90
16823;DHT22;8528;49.976;11.858;2023-08-21T03:30:17;19.00;99.90
16823;DHT22;8528;49.976;11.858;2023-08-21T03:32:44;19.00;99.90
16823;DHT22;8528;49.976;11.858;2023-08-21T03:35:11;19.00;99.90
16823;DHT22;8528;49.976;11.858;2023-08-21T03:37:38;19.00;99.90
16823;DHT22;8528;49.976;11.858;2023-08-21T03:40:06;19.00;99.90
16823;DHT22;8528;49.976;11.858;2023-08-21T03:42:33;19.00;99.90
16823;DHT22;8528;49.976;11.858;2023-08-21T03:45:00;19.00;99.90
16823;DHT22;8528;49.976;11.858;2023-08-21T03:47:27;19.10;99.90
16823;DHT22;8528;49.976;11.858;2023-08-21T03:49:54;19.10;99.90
16823;DHT22;8528;49.976;11.858;2023-08-21T03:52:27;19.10;99.90
16823;DHT22;8528;49.976;11.858;2023-08-21T03:54:54;19.10;99.90
16823;DHT22;8528;49.976;11.858;2023-08-21T03:57:21;19.00;99.90
16823;DHT22;8528;49.976;11.858;2023-08-21T03:59:48;19.00;99.90
16823;DHT22;8528;49.976;11.858;2023-08-21T04:02:15;19.00;99.90
16823;DHT22;8528;49.976;11.858;2023-08-21T04:04:42;18.90;99.90
16823;DHT22;8528;49.976;11.858;2023-08-21T04:07:09;18.90;99.90
16823;DHT22;8528;49.976;11.858;2023-08-21T04:09:36;18.90;99.90
16823;DHT22;8528;49.976;11.858;2023-08-21T04:12:04;18.90;99.90
16823;DHT22;8528;49.976;11.858;2023-08-21T04:14:31;18.90;99.90
16823;DHT22;8528;49.976;11.858;2023-08-21T04:16:58;18.80;99.90
16823;DHT22;8528;49.976;11.858;2023-08-21T04:19:25;18.80;99.90
16823;DHT22;8528;49.976;11.858;2023-08-21T04:21:56;18.80;99.90
16823;DHT22;8528;49.976;11.858;2023-08-21T04:24:23;18.80;99.90
16823;DHT22;8528;49.976;11.858;2023-08-21T04:26:51;18.70;99.90
16823;DHT22;8528;49.976;11.858;2023-08-21T04:29:17;18.70;99.90
16823;DHT22;8528;49.976;11.858;2023-08-21T04:31:44;18.70;99.90
16823;DHT22;8528;49.976;11.858;2023-08-21T04:34:11;18.70;99.90
16823;DHT22;8528;49.976;11.858;2023-08-21T04:36:39;18.70;99.90
16823;DHT22;8528;49.976;11.858;2023-08-21T04:39:05;18.80;99.90
16823;DHT22;8528;49.976;11.858;2023-08-21T04:41:33;18.90;99.90
16823;DHT22;8528;49.976;11.858;2023-08-21T04:44:00;19.00;99.90
16823;DHT22;8528;49.976;11.858;2023-08-21T04:46:27;19.10;99.90
16823;DHT22;8528;49.976;11.858;2023-08-21T04:48:54;19.20;99.90
16823;DHT22;8528;49.976;11.858;2023-08-21T04:51:20;19.30;99.90
16823;DHT22;8528;49.976;11.858;2023-08-21T04:53:47;19.50;99.90
16823;DHT22;8528;49.976;11.858;2023-08-21T04:56:14;19.80;99.90
16823;DHT22;8528;49.976;11.858;2023-08-21T04:58:40;20.00;99.90
16823;DHT22;8528;49.976;11.858;2023-08-21T05:01:07;20.30;99.90
16823;DHT22;8528;49.976;11.858;2023-08-21T05:03:35;20.60;99.90
16823;DHT22;8528;49.976;11.858;2023-08-21T05:06:02;21.00;99.90
16823;DHT22;8528;49.976;11.858;2023-08-21T05:08:29;21.40;99.90
16823;DHT22;8528;49.976;11.858;2023-08-21T05:10:57;21.90;99.90
16823;DHT22;8528;49.976;11.858;2023-08-21T05:13:24;22.30;99.90
16823;DHT22;8528;49.976;11.858;2023-08-21T05:15:55;22.90;99.90
16823;DHT22;8528;49.976;11.858;2023-08-21T05:18:24;23.40;99.90
16823;DHT22;8528;49.976;11.858;2023-08-21T05:20:53;23.70;99.90
16823;DHT22;8528;49.976;11.858;2023-08-21T05:23:20;24.20;99.90
16823;DHT22;8528;49.976;11.858;2023-08-21T05:25:48;24.70;99.90
16823;DHT22;8528;49.976;11.858;2023-08-21T05:28:16;25.10;99.90
16823;DHT22;8528;49.976;11.858;2023-08-21T05:30:43;25.70;99.90
16823;DHT22;8528;49.976;11.858;2023-08-21T05:33:09;26.10;99.90
16823;DHT22;8528;49.976;11.858;2023-08-21T05:35:37;26.60;99.90
16823;DHT22;8528;49.976;11.858;2023-08-21T05:38:05;27.10;99.90
16823;DHT22;8528;49.976;11.858;2023-08-21T05:40:32;27.60;99.90
16823;DHT22;8528;49.976;11.858;2023-08-21T05:42:59;28.00;99.90
16823;DHT22;8528;49.976;11.858;2023-08-21T05:45:26;28.40;99.90
16823;DHT22;8528;49.976;11.858;2023-08-21T05:47:54;28.80;99.90
16823;DHT22;8528;49.976;11.858;2023-08-21T05:50:22;29.30;99.90
16823;DHT22;8528;49.976;11.858;2023-08-21T05:52:49;29.70;99.90
16823;DHT22;8528;49.976;11.858;2023-08-21T05:55:17;30.20;99.90
16823;DHT22;8528;49.976;11.858;2023-08-21T05:57:44;30.60;99.90
16823;DHT22;8528;49.976;11.858;2023-08-21T06:00:12;31.10;99.90
16823;DHT22;8528;49.976;11.858;2023-08-21T06:02:40;31.40;99.90
16823;DHT22;8528;49.976;11.858;2023-08-21T06:05:08;31.90;99.90
16823;DHT22;8528;49.976;11.858;2023-08-21T06:07:36;32.20;99.90
16823;DHT22;8528;49.976;11.858;2023-08-21T06:10:03;32.70;99.00
16823;DHT22;8528;49.976;11.858;2023-08-21T06:12:31;33.30;97.70
16823;DHT22;8528;49.976;11.858;2023-08-21T06:14:58;33.90;96.20
16823;DHT22;8528;49.976;11.858;2023-08-21T06:17:27;34.50;94.30
16823;DHT22;8528;49.976;11.858;2023-08-21T06:19:54;34.80;92.90
16823;DHT22;8528;49.976;11.858;2023-08-21T06:22:22;35.20;91.20
16823;DHT22;8528;49.976;11.858;2023-08-21T06:24:48;35.50;89.70
16823;DHT22;8528;49.976;11.858;2023-08-21T06:27:15;35.90;86.90
16823;DHT22;8528;49.976;11.858;2023-08-21T06:29:42;36.30;85.00
16823;DHT22;8528;49.976;11.858;2023-08-21T06:32:09;36.90;82.80
16823;DHT22;8528;49.976;11.858;2023-08-21T06:34:36;37.00;79.80
16823;DHT22;8528;49.976;11.858;2023-08-21T06:37:03;36.80;78.40
16823;DHT22;8528;49.976;11.858;2023-08-21T06:39:31;36.20;79.20
16823;DHT22;8528;49.976;11.858;2023-08-21T06:41:58;36.00;79.80
16823;DHT22;8528;49.976;11.858;2023-08-21T06:44:26;35.90;79.20
16823;DHT22;8528;49.976;11.858;2023-08-21T06:46:54;35.60;78.90
16823;DHT22;8528;49.976;11.858;2023-08-21T06:49:20;35.50;79.20
16823;DHT22;8528;49.976;11.858;2023-08-21T06:51:47;36.10;76.70
16823;DHT22;8528;49.976;11.858;2023-08-21T06:54:14;36.40;75.80
16823;DHT22;8528;49.976;11.858;2023-08-21T06:56:41;36.90;73.70
16823;DHT22;8528;49.976;11.858;2023-08-21T06:59:08;37.20;72.50
16823;DHT22;8528;49.976;11.858;2023-08-21T07:01:35;37.60;71.10
16823;DHT22;8528;49.976;11.858;2023-08-21T07:04:02;38.30;70.70
16823;DHT22;8528;49.976;11.858;2023-08-21T07:06:30;38.40;68.20
16823;DHT22;8528;49.976;11.858;2023-08-21T07:08:57;38.80;66.40
16823;DHT22;8528;49.976;11.858;2023-08-21T07:11:24;39.50;63.50
16823;DHT22;8528;49.976;11.858;2023-08-21T07:13:51;40.20;62.10
16823;DHT22;8528;49.976;11.858;2023-08-21T07:16:18;40.30;60.40
16823;DHT22;8528;49.976;11.858;2023-08-21T07:18:44;40.60;59.00
16823;DHT22;8528;49.976;11.858;2023-08-21T07:21:11;40.60;58.80
16823;DHT22;8528;49.976;11.858;2023-08-21T07:23:58;41.00;57.90
16823;DHT22;8528;49.976;11.858;2023-08-21T07:26:26;41.70;56.20
16823;DHT22;8528;49.976;11.858;2023-08-21T07:28:53;42.30;54.80
16823;DHT22;8528;49.976;11.858;2023-08-21T07:31:20;42.60;53.70
16823;DHT22;8528;49.976;11.858;2023-08-21T07:33:47;42.70;53.30
16823;DHT22;8528;49.976;11.858;2023-08-21T07:36:14;42.90;52.20
16823;DHT22;8528;49.976;11.858;2023-08-21T07:38:45;43.30;52.20
16823;DHT22;8528;49.976;11.858;2023-08-21T07:41:13;43.70;51.50
16823;DHT22;8528;49.976;11.858;2023-08-21T07:43:42;44.20;49.50
16823;DHT22;8528;49.976;11.858;2023-08-21T07:46:11;44.40;48.50
16823;DHT22;8528;49.976;11.858;2023-08-21T07:48:45;44.50;49.00
16823;DHT22;8528;49.976;11.858;2023-08-21T07:51:12;44.20;48.40
16823;DHT22;8528;49.976;11.858;2023-08-21T07:53:39;44.50;47.90
16823;DHT22;8528;49.976;11.858;2023-08-21T07:56:07;44.90;46.90
16823;DHT22;8528;49.976;11.858;2023-08-21T07:58:33;45.20;46.00
16823;DHT22;8528;49.976;11.858;2023-08-21T08:01:00;45.50;45.30
16823;DHT22;8528;49.976;11.858;2023-08-21T08:03:28;44.60;45.40
16823;DHT22;8528;49.976;11.858;2023-08-21T08:05:55;44.10;45.80
16823;DHT22;8528;49.976;11.858;2023-08-21T08:08:22;44.60;45.40
16823;DHT22;8528;49.976;11.858;2023-08-21T08:10:49;45.20;44.30
16823;DHT22;8528;49.976;11.858;2023-08-21T08:13:15;45.90;44.20
16823;DHT22;8528;49.976;11.858;2023-08-21T08:15:42;46.90;43.10
16823;DHT22;8528;49.976;11.858;2023-08-21T08:18:13;46.60;43.50
16823;DHT22;8528;49.976;11.858;2023-08-21T08:20:40;46.30;43.50
16823;DHT22;8528;49.976;11.858;2023-08-21T08:23:07;46.00;42.20
16823;DHT22;8528;49.976;11.858;2023-08-21T08:25:34;46.00;42.10
16823;DHT22;8528;49.976;11.858;2023-08-21T08:28:01;45.90;42.20
16823;DHT22;8528;49.976;11.858;2023-08-21T08:30:28;46.40;41.60
16823;DHT22;8528;49.976;11.858;2023-08-21T08:33:00;47.10;40.50
16823;DHT22;8528;49.976;11.858;2023-08-21T08:35:27;47.40;40.30
16823;DHT22;8528;49.976;11.858;2023-08-21T08:37:54;46.90;40.10
16823;DHT22;8528;49.976;11.858;2023-08-21T08:40:21;47.00;39.80
16823;DHT22;8528;49.976;11.858;2023-08-21T08:42:48;47.60;40.10
16823;DHT22;8528;49.976;11.858;2023-08-21T08:45:15;48.40;36.50
16823;DHT22;8528;49.976;11.858;2023-08-21T08:48:21;48.60;37.30
16823;DHT22;8528;49.976;11.858;2023-08-21T08:50:48;48.70;36.60
16823;DHT22;8528;49.976;11.858;2023-08-21T08:53:17;49.80;35.40
16823;DHT22;8528;49.976;11.858;2023-08-21T08:55:45;50.70;34.20
16823;DHT22;8528;49.976;11.858;2023-08-21T08:58:12;51.50;33.60
16823;DHT22;8528;49.976;11.858;2023-08-21T09:00:39;51.50;33.10
16823;DHT22;8528;49.976;11.858;2023-08-21T09:03:06;50.50;33.30
16823;DHT22;8528;49.976;11.858;2023-08-21T09:05:34;50.20;33.30
16823;DHT22;8528;49.976;11.858;2023-08-21T09:08:10;48.90;32.50
16823;DHT22;8528;49.976;11.858;2023-08-21T09:10:41;49.10;32.60
16823;DHT22;8528;49.976;11.858;2023-08-21T09:13:18;50.20;31.40
16823;DHT22;8528;49.976;11.858;2023-08-21T09:15:53;51.30;30.50
16823;DHT22;8528;49.976;11.858;2023-08-21T09:18:20;50.70;30.90
16823;DHT22;8528;49.976;11.858;2023-08-21T09:20:47;49.20;33.50
16823;DHT22;8528;49.976;11.858;2023-08-21T09:23:15;48.90;33.10
16823;DHT22;8528;49.976;11.858;2023-08-21T09:25:47;49.20;34.40
16823;DHT22;8528;49.976;11.858;2023-08-21T09:28:18;49.20;32.40
16823;DHT22;8528;49.976;11.858;2023-08-21T09:30:53;49.20;32.30
16823;DHT22;8528;49.976;11.858;2023-08-21T09:33:22;49.30;32.00
16823;DHT22;8528;49.976;11.858;2023-08-21T09:35:51;47.90;33.60
16823;DHT22;8528;49.976;11.858;2023-08-21T09:38:20;47.00;34.60
16823;DHT22;8528;49.976;11.858;2023-08-21T09:40:51;47.70;33.90
16823;DHT22;8528;49.976;11.858;2023-08-21T09:43:20;47.00;35.40
16823;DHT22;8528;49.976;11.858;2023-08-21T09:45:54;46.20;36.00
16823;DHT22;8528;49.976;11.858;2023-08-21T09:48:24;46.30;37.10
16823;DHT22;8528;49.976;11.858;2023-08-21T09:50:53;45.20;37.80
16823;DHT22;8528;49.976;11.858;2023-08-21T09:53:21;43.30;39.20
16823;DHT22;8528;49.976;11.858;2023-08-21T09:55:54;41.50;41.70
16823;DHT22;8528;49.976;11.858;2023-08-21T09:58:21;39.80;44.00
16823;DHT22;8528;49.976;11.858;2023-08-21T10:00:49;38.00;47.10
16823;DHT22;8528;49.976;11.858;2023-08-21T10:03:21;36.30;49.20
16823;DHT22;8528;49.976;11.858;2023-08-21T10:05:50;35.10;52.30
16823;DHT22;8528;49.976;11.858;2023-08-21T10:08:24;34.60;54.00
16823;DHT22;8528;49.976;11.858;2023-08-21T10:10:52;36.30;51.10
16823;DHT22;8528;49.976;11.858;2023-08-21T10:13:20;39.00;47.30
16823;DHT22;8528;49.976;11.858;2023-08-21T10:15:47;41.40;43.70
16823;DHT22;8528;49.976;11.858;2023-08-21T10:18:23;41.50;42.70
16823;DHT22;8528;49.976;11.858;2023-08-21T10:20:53;39.80;44.80
16823;DHT22;8528;49.976;11.858;2023-08-21T10:23:31;37.90;48.10
16823;DHT22;8528;49.976;11.858;2023-08-21T10:25:59;37.90;49.10
16823;DHT22;8528;49.976;11.858;2023-08-21T10:29:00;38.90;47.10
16823;DHT22;8528;49.976;11.858;2023-08-21T10:31:38;40.20;44.70
16823;DHT22;8528;49.976;11.858;2023-08-21T10:34:13;41.10;44.30
16823;DHT22;8528;49.976;11.858;2023-08-21T10:39:14;39.20;47.30
16823;DHT22;8528;49.976;11.858;2023-08-21T10:47:19;40.00;45.70
16823;DHT22;8528;49.976;11.858;2023-08-21T10:49:49;41.40;43.50
16823;DHT22;8528;49.976;11.858;2023-08-21T10:54:57;43.40;41.30
16823;DHT22;8528;49.976;11.858;2023-08-21T10:57:28;44.70;39.50
16823;DHT22;8528;49.976;11.858;2023-08-21T11:00:00;44.30;38.70
16823;DHT22;8528;49.976;11.858;2023-08-21T11:02:29;43.30;40.40
16823;DHT22;8528;49.976;11.858;2023-08-21T11:04:56;42.90;41.30
16823;DHT22;8528;49.976;11.858;2023-08-21T11:07:25;43.40;39.80
16823;DHT22;8528;49.976;11.858;2023-08-21T11:09:52;44.30;38.70
16823;DHT22;8528;49.976;11.858;2023-08-21T11:12:21;44.60;38.70
16823;DHT22;8528;49.976;11.858;2023-08-21T11:14:48;43.80;39.10
16823;DHT22;8528;49.976;11.858;2023-08-21T11:17:16;44.40;38.20
16823;DHT22;8528;49.976;11.858;2023-08-21T11:19:44;45.60;36.60
16823;DHT22;8528;49.976;11.858;2023-08-21T11:22:48;44.90;37.10
16823;DHT22;8528;49.976;11.858;2023-08-21T11:25:15;43.10;39.90
16823;DHT22;8528;49.976;11.858;2023-08-21T11:27:44;42.10;41.80
16823;DHT22;8528;49.976;11.858;2023-08-21T11:30:11;41.00;41.80
16823;DHT22;8528;49.976;11.858;2023-08-21T11:32:39;40.30;42.90
16823;DHT22;8528;49.976;11.858;2023-08-21T11:35:08;40.30;42.20
16823;DHT22;8528;49.976;11.858;2023-08-21T11:37:57;40.40;42.50
16823;DHT22;8528;49.976;11.858;2023-08-21T11:40:54;40.30;43.50
16823;DHT22;8528;49.976;11.858;2023-08-21T11:43:21;39.60;46.00
16823;DHT22;8528;49.976;11.858;2023-08-21T11:45:48;38.90;46.80
16823;DHT22;8528;49.976;11.858;2023-08-21T11:48:24;38.20;46.40
16823;DHT22;8528;49.976;11.858;2023-08-21T11:50:52;37.50;46.50
16823;DHT22;8528;49.976;11.858;2023-08-21T11:53:39;38.20;44.70
16823;DHT22;8528;49.976;11.858;2023-08-21T11:56:14;39.20;44.00
16823;DHT22;8528;49.976;11.858;2023-08-21T11:58:43;41.30;42.00
16823;DHT22;8528;49.976;11.858;2023-08-21T12:01:16;42.90;39.80
16823;DHT22;8528;49.976;11.858;2023-08-21T12:03:43;42.90;39.90
16823;DHT22;8528;49.976;11.858;2023-08-21T12:06:12;41.90;40.30
16823;DHT22;8528;49.976;11.858;2023-08-21T12:08:39;40.00;41.90
16823;DHT22;8528;49.976;11.858;2023-08-21T12:11:07;39.30;44.50
16823;DHT22;8528;49.976;11.858;2023-08-21T12:13:34;38.50;46.70
16823;DHT22;8528;49.976;11.858;2023-08-21T12:16:05;38.10;47.10
16823;DHT22;8528;49.976;11.858;2023-08-21T12:18:32;37.50;47.30
16823;DHT22;8528;49.976;11.858;2023-08-21T12:20:59;37.20;49.70
16823;DHT22;8528;49.976;11.858;2023-08-21T12:23:25;37.10;50.40
16823;DHT22;8528;49.976;11.858;2023-08-21T12:25:52;37.10;50.10
16823;DHT22;8528;49.976;11.858;2023-08-21T12:28:19;37.00;49.80
16823;DHT22;8528;49.976;11.858;2023-08-21T12:30:46;37.90;47.40
16823;DHT22;8528;49.976;11.858;2023-08-21T12:33:20;39.20;46.30
16823;DHT22;8528;49.976;11.858;2023-08-21T12:35:50;39.50;44.50
16823;DHT22;8528;49.976;11.858;2023-08-21T12:38:17;39.10;45.60
16823;DHT22;8528;49.976;11.858;2023-08-21T12:40:44;38.60;45.80
16823;DHT22;8528;49.976;11.858;2023-08-21T12:43:11;38.20;46.00
16823;DHT22;8528;49.976;11.858;2023-08-21T12:45:37;37.70;48.40
16823;DHT22;8528;49.976;11.858;2023-08-21T12:48:05;37.50;49.40
16823;DHT22;8528;49.976;11.858;2023-08-21T12:50:32;38.10;47.80
16823;DHT22;8528;49.976;11.858;2023-08-21T12:52:59;38.30;46.70
16823;DHT22;8528;49.976;11.858;2023-08-21T12:55:27;38.80;45.20
16823;DHT22;8528;49.976;11.858;2023-08-21T12:57:55;40.00;43.10
16823;DHT22;8528;49.976;11.858;2023-08-21T13:00:22;41.80;41.20
16823;DHT22;8528;49.976;11.858;2023-08-21T13:02:49;43.80;38.70
16823;DHT22;8528;49.976;11.858;2023-08-21T13:05:16;44.90;36.20
16823;DHT22;8528;49.976;11.858;2023-08-21T13:07:43;46.10;36.90
16823;DHT22;8528;49.976;11.858;2023-08-21T13:10:09;47.10;34.40
16823;DHT22;8528;49.976;11.858;2023-08-21T13:12:36;48.10;33.10
16823;DHT22;8528;49.976;11.858;2023-08-21T13:15:04;48.50;34.40
16823;DHT22;8528;49.976;11.858;2023-08-21T13:17:34;48.40;32.10
16823;DHT22;8528;49.976;11.858;2023-08-21T13:20:01;48.40;31.80
16823;DHT22;8528;49.976;11.858;2023-08-21T13:22:28;48.10;33.90
16823;DHT22;8528;49.976;11.858;2023-08-21T13:24:55;46.90;35.10
16823;DHT22;8528;49.976;11.858;2023-08-21T13:27:22;46.90;33.80
16823;DHT22;8528;49.976;11.858;2023-08-21T13:29:49;46.80;33.10
16823;DHT22;8528;49.976;11.858;2023-08-21T13:32:15;46.60;31.50
16823;DHT22;8528;49.976;11.858;2023-08-21T13:34:42;45.90;33.40
16823;DHT22;8528;49.976;11.858;2023-08-21T13:37:09;45.40;34.00
16823;DHT22;8528;49.976;11.858;2023-08-21T13:39:36;45.00;33.50
16823;DHT22;8528;49.976;11.858;2023-08-21T13:42:02;44.10;33.90
16823;DHT22;8528;49.976;11.858;2023-08-21T13:44:29;42.90;35.60
16823;DHT22;8528;49.976;11.858;2023-08-21T13:46:59;41.50;39.50
16823;DHT22;8528;49.976;11.858;2023-08-21T13:49:26;40.00;39.50
16823;DHT22;8528;49.976;11.858;2023-08-21T13:51:53;38.40;41.00
16823;DHT22;8528;49.976;11.858;2023-08-21T13:54:20;37.50;41.60
16823;DHT22;8528;49.976;11.858;2023-08-21T13:56:47;36.80;43.20
16823;DHT22;8528;49.976;11.858;2023-08-21T13:59:13;35.90;46.30
16823;DHT22;8528;49.976;11.858;2023-08-21T14:01:40;35.60;45.90
16823;DHT22;8528;49.976;11.858;2023-08-21T14:04:07;35.20;48.70
16823;DHT22;8528;49.976;11.858;2023-08-21T14:06:34;34.90;49.80
16823;DHT22;8528;49.976;11.858;2023-08-21T14:09:01;34.50;48.80
16823;DHT22;8528;49.976;11.858;2023-08-21T14:11:28;34.40;49.80
16823;DHT22;8528;49.976;11.858;2023-08-21T14:13:54;34.10;52.20
16823;DHT22;8528;49.976;11.858;2023-08-21T14:16:21;34.00;51.30
16823;DHT22;8528;49.976;11.858;2023-08-21T14:18:48;33.90;50.50
16823;DHT22;8528;49.976;11.858;2023-08-21T14:21:14;33.90;49.30
16823;DHT22;8528;49.976;11.858;2023-08-21T14:23:41;33.80;51.20
16823;DHT22;8528;49.976;11.858;2023-08-21T14:26:08;33.80;50.30
16823;DHT22;8528;49.976;11.858;2023-08-21T14:28:35;33.50;49.50
16823;DHT22;8528;49.976;11.858;2023-08-21T14:31:01;33.10;50.70
16823;DHT22;8528;49.976;11.858;2023-08-21T14:33:28;32.70;51.60
16823;DHT22;8528;49.976;11.858;2023-08-21T14:35:55;32.50;51.50
16823;DHT22;8528;49.976;11.858;2023-08-21T14:38:23;32.40;51.40
16823;DHT22;8528;49.976;11.858;2023-08-21T14:40:51;32.20;51.30
16823;DHT22;8528;49.976;11.858;2023-08-21T14:43:19;32.10;51.50
16823;DHT22;8528;49.976;11.858;2023-08-21T14:45:46;31.90;53.10
16823;DHT22;8528;49.976;11.858;2023-08-21T14:48:13;31.90;52.20
16823;DHT22;8528;49.976;11.858;2023-08-21T14:50:40;31.80;51.90
16823;DHT22;8528;49.976;11.858;2023-08-21T14:53:06;31.70;53.40
16823;DHT22;8528;49.976;11.858;2023-08-21T14:55:33;31.70;53.40
16823;DHT22;8528;49.976;11.858;2023-08-21T14:58:00;31.70;53.80
16823;DHT22;8528;49.976;11.858;2023-08-21T15:00:32;31.60;53.70
16823;DHT22;8528;49.976;11.858;2023-08-21T15:02:58;31.50;54.90
16823;DHT22;8528;49.976;11.858;2023-08-21T15:05:30;31.50;55.50
16823;DHT22;8528;49.976;11.858;2023-08-21T15:07:57;31.50;53.20
16823;DHT22;8528;49.976;11.858;2023-08-21T15:10:26;31.40;53.70
16823;DHT22;8528;49.976;11.858;2023-08-21T15:12:54;31.30;53.90
16823;DHT22;8528;49.976;11.858;2023-08-21T15:15:20;31.30;55.90
16823;DHT22;8528;49.976;11.858;2023-08-21T15:17:51;31.20;56.60
16823;DHT22;8528;49.976;11.858;2023-08-21T15:20:18;31.10;56.10
16823;DHT22;8528;49.976;11.858;2023-08-21T15:22:45;31.10;55.00
16823;DHT22;8528;49.976;11.858;2023-08-21T15:25:12;31.00;55.70
16823;DHT22;8528;49.976;11.858;2023-08-21T15:27:39;30.80;55.10
16823;DHT22;8528;49.976;11.858;2023-08-21T15:30:07;30.70;57.70
16823;DHT22;8528;49.976;11.858;2023-08-21T15:32:34;30.60;56.30
16823;DHT22;8528;49.976;11.858;2023-08-21T15:35:01;30.60;56.70
16823;DHT22;8528;49.976;11.858;2023-08-21T15:37:31;30.50;57.50
16823;DHT22;8528;49.976;11.858;2023-08-21T15:39:58;30.40;59.40
16823;DHT22;8528;49.976;11.858;2023-08-21T15:42:25;30.30;58.20
16823;DHT22;8528;49.976;11.858;2023-08-21T15:44:52;30.10;57.60
16823;DHT22;8528;49.976;11.858;2023-08-21T15:47:19;30.10;60.30